Terminal Aerodrome Forecast
Issued by NWS Green Bay, WI

Home | Current Version | Previous Version | Text Only | Print | Product List | Glossary Off
Versions: 1 2 3 4 5 6 7 8 9 10 11 12 13 14 15 16 17 18 19 20 21 22 23 24 25 26 27 28 29 30 31 32 33 34 35 36 37 38 39 40 41 42

000
FTUS43 KGRB 192300 RRA
TAFGRB
TAF
KGRB 192343Z 2000/2024 19012G20KT P6SM SCT070 BKN150 WS012/20040KT
     FM200400 21009G15KT P6SM SCT035 BKN070 WS012/23040KT
      TEMPO 2005/2007 4SM SHRA OVC035
     FM200900 23010G17KT P6SM SCT015 BKN080 WS015/25040KT
      TEMPO 2010/2014 4SM SHRA BR BKN015
     FM201400 24010G17KT P6SM SCT015 BKN100
     FM201900 28010G17KT P6SM SCT030 SCT100=

USA.gov is the U.S. government's official web portal to all federal, state and local government web resources and services.